sensor_id;sensor_type;location;lat;lon;timestamp;pressure;altitude;pressure_sealevel;temperature;humidity
12215;BME280;6170;42.206;24.142;2023-01-09T00:01:46;99366.97;;;-0.31;83.63
12215;BME280;6170;42.206;24.142;2023-01-09T00:04:13;99421.06;;;-0.05;83.78
12215;BME280;6170;42.206;24.142;2023-01-09T00:06:39;99373.53;;;-0.26;83.17
12215;BME280;6170;42.206;24.142;2023-01-09T00:09:08;99364.78;;;-0.49;83.81
12215;BME280;6170;42.206;24.142;2023-01-09T00:11:35;99364.78;;;-0.60;84.48
12215;BME280;6170;42.206;24.142;2023-01-09T00:14:02;99405.47;;;-0.30;84.63
12215;BME280;6170;42.206;24.142;2023-01-09T00:16:29;99371.50;;;-0.44;84.14
12215;BME280;6170;42.206;24.142;2023-01-09T00:18:57;99367.53;;;-0.39;83.81
12215;BME280;6170;42.206;24.142;2023-01-09T00:21:25;99366.09;;;-0.43;83.45
12215;BME280;6170;42.206;24.142;2023-01-09T00:23:52;99361.91;;;-0.57;84.17
12215;BME280;6170;42.206;24.142;2023-01-09T00:26:19;99364.19;;;0.04;84.19
12215;BME280;6170;42.206;24.142;2023-01-09T00:28:47;99367.22;;;0.42;84.24
12215;BME280;6170;42.206;24.142;2023-01-09T00:31:15;99359.41;;;0.40;83.04
12215;BME280;6170;42.206;24.142;2023-01-09T00:33:43;99366.47;;;-0.48;83.29
12215;BME280;6170;42.206;24.142;2023-01-09T00:36:12;99420.44;;;-0.42;83.65
12215;BME280;6170;42.206;24.142;2023-01-09T00:38:39;99368.38;;;-0.50;83.63
12215;BME280;6170;42.206;24.142;2023-01-09T00:41:09;99375.94;;;-0.45;83.07
12215;BME280;6170;42.206;24.142;2023-01-09T00:43:40;99358.28;;;-0.78;83.62
12215;BME280;6170;42.206;24.142;2023-01-09T00:46:09;99360.94;;;-0.56;83.45
12215;BME280;6170;42.206;24.142;2023-01-09T00:48:37;99360.97;;;-0.44;83.25
12215;BME280;6170;42.206;24.142;2023-01-09T00:51:06;99367.41;;;-0.49;83.23
12215;BME280;6170;42.206;24.142;2023-01-09T00:53:36;99361.56;;;-0.63;83.92
12215;BME280;6170;42.206;24.142;2023-01-09T00:56:07;99353.66;;;-0.63;84.26
12215;BME280;6170;42.206;24.142;2023-01-09T00:58:36;99350.69;;;-0.59;83.72
12215;BME280;6170;42.206;24.142;2023-01-09T01:01:03;99356.41;;;-0.65;84.58
12215;BME280;6170;42.206;24.142;2023-01-09T01:03:30;99347.66;;;-0.65;84.38
12215;BME280;6170;42.206;24.142;2023-01-09T01:05:57;99343.69;;;-0.82;84.24
12215;BME280;6170;42.206;24.142;2023-01-09T01:08:43;99343.38;;;-1.12;85.42
12215;BME280;6170;42.206;24.142;2023-01-09T01:11:10;99333.03;;;-0.92;85.95
12215;BME280;6170;42.206;24.142;2023-01-09T01:13:38;99331.50;;;-0.61;85.04
12215;BME280;6170;42.206;24.142;2023-01-09T01:16:09;99340.59;;;-0.76;85.15
12215;BME280;6170;42.206;24.142;2023-01-09T01:18:36;99326.00;;;-0.69;85.40
12215;BME280;6170;42.206;24.142;2023-01-09T01:21:05;99352.69;;;-0.73;85.47
12215;BME280;6170;42.206;24.142;2023-01-09T01:23:32;99327.78;;;-0.92;85.10
12215;BME280;6170;42.206;24.142;2023-01-09T01:26:04;99303.88;;;-0.77;84.83
12215;BME280;6170;42.206;24.142;2023-01-09T01:28:31;99319.06;;;-0.81;84.83
12215;BME280;6170;42.206;24.142;2023-01-09T01:30:58;99321.72;;;-0.59;84.13
12215;BME280;6170;42.206;24.142;2023-01-09T01:33:25;99312.75;;;-0.56;83.93
12215;BME280;6170;42.206;24.142;2023-01-09T01:35:59;99303.13;;;-1.02;84.92
12215;BME280;6170;42.206;24.142;2023-01-09T01:38:27;99314.31;;;-0.54;84.45
12215;BME280;6170;42.206;24.142;2023-01-09T01:40:54;99309.03;;;-0.65;84.43
12215;BME280;6170;42.206;24.142;2023-01-09T01:43:22;99311.91;;;-0.57;84.26
12215;BME280;6170;42.206;24.142;2023-01-09T01:45:49;99279.34;;;-0.78;83.58
12215;BME280;6170;42.206;24.142;2023-01-09T01:48:17;99300.66;;;-0.36;83.18
12215;BME280;6170;42.206;24.142;2023-01-09T01:50:48;99348.38;;;-0.08;83.26
12215;BME280;6170;42.206;24.142;2023-01-09T01:53:18;99293.34;;;-0.44;83.87
12215;BME280;6170;42.206;24.142;2023-01-09T01:55:55;99290.09;;;-0.25;83.61
12215;BME280;6170;42.206;24.142;2023-01-09T01:58:29;99289.03;;;-0.23;85.29
12215;BME280;6170;42.206;24.142;2023-01-09T02:00:56;99280.78;;;0.25;85.03
12215;BME280;6170;42.206;24.142;2023-01-09T02:03:26;99282.94;;;0.52;85.61
12215;BME280;6170;42.206;24.142;2023-01-09T02:05:54;99280.69;;;0.68;86.19
12215;BME280;6170;42.206;24.142;2023-01-09T02:08:21;99284.63;;;0.94;85.93
12215;BME280;6170;42.206;24.142;2023-01-09T02:10:48;99276.81;;;1.13;85.95
12215;BME280;6170;42.206;24.142;2023-01-09T02:13:16;99271.72;;;1.21;85.22
12215;BME280;6170;42.206;24.142;2023-01-09T02:15:59;99270.03;;;1.41;84.79
12215;BME280;6170;42.206;24.142;2023-01-09T02:18:47;99263.91;;;1.41;85.20
12215;BME280;6170;42.206;24.142;2023-01-09T02:21:23;99261.91;;;1.33;85.73
12215;BME280;6170;42.206;24.142;2023-01-09T02:27:18;99264.34;;;1.46;85.55
12215;BME280;6170;42.206;24.142;2023-01-09T02:30:26;99269.00;;;1.63;84.20
12215;BME280;6170;42.206;24.142;2023-01-09T02:32:59;99259.81;;;1.27;83.70
12215;BME280;6170;42.206;24.142;2023-01-09T02:35:37;99259.59;;;1.40;83.10
12215;BME280;6170;42.206;24.142;2023-01-09T02:38:16;99250.00;;;1.39;83.40
12215;BME280;6170;42.206;24.142;2023-01-09T02:40:49;99257.47;;;1.33;83.69
12215;BME280;6170;42.206;24.142;2023-01-09T02:43:19;99250.38;;;1.04;83.40
12215;BME280;6170;42.206;24.142;2023-01-09T02:45:47;99259.84;;;1.06;83.82
12215;BME280;6170;42.206;24.142;2023-01-09T02:48:14;99287.19;;;1.26;83.39
12215;BME280;6170;42.206;24.142;2023-01-09T02:50:46;99242.97;;;1.18;83.44
12215;BME280;6170;42.206;24.142;2023-01-09T02:56:27;99243.44;;;1.33;83.82
12215;BME280;6170;42.206;24.142;2023-01-09T02:59:11;99245.22;;;1.23;84.36
12215;BME280;6170;42.206;24.142;2023-01-09T03:01:51;99239.09;;;1.22;84.92
12215;BME280;6170;42.206;24.142;2023-01-09T03:04:27;99234.03;;;1.10;85.50
12215;BME280;6170;42.206;24.142;2023-01-09T03:07:01;99233.66;;;1.14;85.54
12215;BME280;6170;42.206;24.142;2023-01-09T03:09:35;99229.63;;;1.20;85.18
12215;BME280;6170;42.206;24.142;2023-01-09T03:12:07;99277.78;;;1.43;85.51
12215;BME280;6170;42.206;24.142;2023-01-09T03:14:39;99234.69;;;1.32;85.04
12215;BME280;6170;42.206;24.142;2023-01-09T03:17:11;99243.25;;;0.95;85.98
12215;BME280;6170;42.206;24.142;2023-01-09T03:19:40;99232.91;;;0.82;86.47
12215;BME280;6170;42.206;24.142;2023-01-09T03:22:08;99235.66;;;1.01;86.78
12215;BME280;6170;42.206;24.142;2023-01-09T03:24:35;99223.47;;;1.10;86.37
12215;BME280;6170;42.206;24.142;2023-01-09T03:27:04;99219.44;;;1.36;86.19
12215;BME280;6170;42.206;24.142;2023-01-09T03:29:32;99227.34;;;1.36;86.16
12215;BME280;6170;42.206;24.142;2023-01-09T03:31:59;99230.53;;;1.40;86.76
12215;BME280;6170;42.206;24.142;2023-01-09T03:34:27;99269.25;;;1.60;87.03
12215;BME280;6170;42.206;24.142;2023-01-09T03:36:54;99215.56;;;1.50;87.40
12215;BME280;6170;42.206;24.142;2023-01-09T03:39:20;99230.53;;;1.40;86.69
12215;BME280;6170;42.206;24.142;2023-01-09T03:41:47;99222.31;;;1.33;87.73
12215;BME280;6170;42.206;24.142;2023-01-09T03:44:14;99229.91;;;1.57;87.12
12215;BME280;6170;42.206;24.142;2023-01-09T03:46:41;99233.66;;;1.64;86.78
12215;BME280;6170;42.206;24.142;2023-01-09T03:49:08;99230.53;;;1.89;86.09
12215;BME280;6170;42.206;24.142;2023-01-09T03:51:36;99234.59;;;2.03;85.88
12215;BME280;6170;42.206;24.142;2023-01-09T03:54:02;99286.25;;;2.45;85.91
12215;BME280;6170;42.206;24.142;2023-01-09T03:56:29;99232.22;;;2.00;85.96
12215;BME280;6170;42.206;24.142;2023-01-09T03:58:56;99242.41;;;2.23;85.84
12215;BME280;6170;42.206;24.142;2023-01-09T04:01:23;99236.38;;;1.93;87.57
12215;BME280;6170;42.206;24.142;2023-01-09T04:03:49;99246.56;;;2.26;86.84
12215;BME280;6170;42.206;24.142;2023-01-09T04:06:16;99238.94;;;2.42;85.48
12215;BME280;6170;42.206;24.142;2023-01-09T04:08:44;99241.56;;;2.42;85.14
12215;BME280;6170;42.206;24.142;2023-01-09T04:11:11;99242.53;;;2.51;85.33
12215;BME280;6170;42.206;24.142;2023-01-09T04:13:38;99248.94;;;2.48;85.65
12215;BME280;6170;42.206;24.142;2023-01-09T04:16:05;99230.72;;;2.36;86.42
12215;BME280;6170;42.206;24.142;2023-01-09T04:18:32;99237.94;;;2.62;85.64
12215;BME280;6170;42.206;24.142;2023-01-09T04:20:59;99240.25;;;2.85;84.57
12215;BME280;6170;42.206;24.142;2023-01-09T04:23:25;99239.69;;;3.00;83.72
12215;BME280;6170;42.206;24.142;2023-01-09T04:25:53;99240.88;;;3.15;82.84
12215;BME280;6170;42.206;24.142;2023-01-09T04:28:20;99246.28;;;3.24;83.06
12215;BME280;6170;42.206;24.142;2023-01-09T04:30:47;99239.63;;;3.20;83.22
12215;BME280;6170;42.206;24.142;2023-01-09T04:33:14;99251.88;;;2.74;84.91
12215;BME280;6170;42.206;24.142;2023-01-09T04:35:41;99248.22;;;2.75;85.12
12215;BME280;6170;42.206;24.142;2023-01-09T04:38:07;99264.38;;;2.62;84.70
12215;BME280;6170;42.206;24.142;2023-01-09T04:40:34;99264.94;;;2.66;85.17
12215;BME280;6170;42.206;24.142;2023-01-09T04:43:02;99262.75;;;2.52;84.99
12215;BME280;6170;42.206;24.142;2023-01-09T04:45:29;99262.84;;;2.21;86.12
12215;BME280;6170;42.206;24.142;2023-01-09T04:47:56;99263.13;;;2.28;85.39
12215;BME280;6170;42.206;24.142;2023-01-09T04:50:22;99254.91;;;2.21;85.32
12215;BME280;6170;42.206;24.142;2023-01-09T04:52:49;99268.56;;;2.26;85.62
12215;BME280;6170;42.206;24.142;2023-01-09T04:55:16;99263.81;;;2.40;85.43
12215;BME280;6170;42.206;24.142;2023-01-09T04:57:43;99269.28;;;2.48;85.44
12215;BME280;6170;42.206;24.142;2023-01-09T05:00:11;99268.03;;;2.42;84.52
12215;BME280;6170;42.206;24.142;2023-01-09T05:02:38;99270.66;;;2.42;84.71
12215;BME280;6170;42.206;24.142;2023-01-09T05:05:07;99276.63;;;2.15;86.36
12215;BME280;6170;42.206;24.142;2023-01-09T05:07:34;99270.75;;;2.02;86.71
12215;BME280;6170;42.206;24.142;2023-01-09T05:10:02;99266.47;;;2.20;87.38
12215;BME280;6170;42.206;24.142;2023-01-09T05:12:29;99264.53;;;2.32;86.72
12215;BME280;6170;42.206;24.142;2023-01-09T05:14:56;99264.53;;;2.32;86.83
12215;BME280;6170;42.206;24.142;2023-01-09T05:17:24;99259.22;;;2.22;87.42
12215;BME280;6170;42.206;24.142;2023-01-09T05:19:51;99264.09;;;2.17;88.31
12215;BME280;6170;42.206;24.142;2023-01-09T05:22:18;99253.53;;;2.27;88.55
12215;BME280;6170;42.206;24.142;2023-01-09T05:24:44;99251.03;;;2.25;88.82
12215;BME280;6170;42.206;24.142;2023-01-09T05:27:11;99254.50;;;2.55;88.15
12215;BME280;6170;42.206;24.142;2023-01-09T05:29:38;99257.00;;;2.66;86.79
12215;BME280;6170;42.206;24.142;2023-01-09T05:32:05;99254.22;;;2.67;85.58
12215;BME280;6170;42.206;24.142;2023-01-09T05:34:33;99259.09;;;2.62;85.55
12215;BME280;6170;42.206;24.142;2023-01-09T05:37:00;99268.16;;;2.69;84.71
12215;BME280;6170;42.206;24.142;2023-01-09T05:39:26;99264.38;;;2.82;83.69
12215;BME280;6170;42.206;24.142;2023-01-09T05:41:53;99262.41;;;2.93;83.10
12215;BME280;6170;42.206;24.142;2023-01-09T05:44:20;99254.75;;;3.00;82.39
12215;BME280;6170;42.206;24.142;2023-01-09T05:46:47;99261.25;;;3.05;81.16
12215;BME280;6170;42.206;24.142;2023-01-09T05:49:13;99249.88;;;2.86;80.56
12215;BME280;6170;42.206;24.142;2023-01-09T05:51:42;99258.38;;;2.80;81.52
12215;BME280;6170;42.206;24.142;2023-01-09T05:54:08;99252.72;;;2.55;82.53
12215;BME280;6170;42.206;24.142;2023-01-09T05:56:35;99258.53;;;2.40;83.79
12215;BME280;6170;42.206;24.142;2023-01-09T05:59:02;99260.22;;;2.31;84.82
12215;BME280;6170;42.206;24.142;2023-01-09T06:01:28;99254.63;;;2.15;85.78
12215;BME280;6170;42.206;24.142;2023-01-09T06:03:55;99253.53;;;2.08;86.45
12215;BME280;6170;42.206;24.142;2023-01-09T06:06:22;99251.72;;;2.18;86.85
12215;BME280;6170;42.206;24.142;2023-01-09T06:08:50;99264.09;;;2.27;85.49
12215;BME280;6170;42.206;24.142;2023-01-09T06:11:17;99251.88;;;2.55;85.00
12215;BME280;6170;42.206;24.142;2023-01-09T06:13:44;99255.78;;;2.60;83.77
12215;BME280;6170;42.206;24.142;2023-01-09T06:16:10;99244.06;;;2.72;83.61
12215;BME280;6170;42.206;24.142;2023-01-09T06:18:38;99254.75;;;2.81;84.39
12215;BME280;6170;42.206;24.142;2023-01-09T06:21:05;99250.19;;;2.54;85.23
12215;BME280;6170;42.206;24.142;2023-01-09T06:23:31;99262.56;;;2.72;85.39
12215;BME280;6170;42.206;24.142;2023-01-09T06:26:00;99272.28;;;3.01;84.61
12215;BME280;6170;42.206;24.142;2023-01-09T06:28:26;99268.84;;;2.81;84.24
12215;BME280;6170;42.206;24.142;2023-01-09T06:30:53;99265.94;;;2.65;84.91
12215;BME280;6170;42.206;24.142;2023-01-09T06:33:20;99269.38;;;2.85;85.80
12215;BME280;6170;42.206;24.142;2023-01-09T06:35:46;99267.69;;;2.84;85.55
12215;BME280;6170;42.206;24.142;2023-01-09T06:38:13;99270.22;;;2.85;85.32
12215;BME280;6170;42.206;24.142;2023-01-09T06:40:40;99271.16;;;2.94;84.30
12215;BME280;6170;42.206;24.142;2023-01-09T06:43:08;99269.38;;;2.94;83.93
12215;BME280;6170;42.206;24.142;2023-01-09T06:45:35;99273.28;;;2.71;84.56
12215;BME280;6170;42.206;24.142;2023-01-09T06:48:02;99266.19;;;2.81;84.24
12215;BME280;6170;42.206;24.142;2023-01-09T06:50:29;99264.25;;;2.83;84.33
12215;BME280;6170;42.206;24.142;2023-01-09T06:52:55;99269.66;;;2.82;84.21
12215;BME280;6170;42.206;24.142;2023-01-09T06:55:22;99269.91;;;2.88;84.36
12215;BME280;6170;42.206;24.142;2023-01-09T06:57:50;99265.34;;;2.90;83.83
12215;BME280;6170;42.206;24.142;2023-01-09T07:00:19;99265.16;;;3.01;83.57
12215;BME280;6170;42.206;24.142;2023-01-09T07:02:46;99271.81;;;3.15;84.29
12215;BME280;6170;42.206;24.142;2023-01-09T07:05:13;99264.47;;;2.99;84.63
12215;BME280;6170;42.206;24.142;2023-01-09T07:07:40;99274.66;;;3.04;84.83
12215;BME280;6170;42.206;24.142;2023-01-09T07:10:08;99262.06;;;3.15;83.60
12215;BME280;6170;42.206;24.142;2023-01-09T07:12:35;99262.91;;;3.16;83.99
12215;BME280;6170;42.206;24.142;2023-01-09T07:15:02;99257.88;;;3.23;84.31
12215;BME280;6170;42.206;24.142;2023-01-09T07:17:30;99272.44;;;2.99;83.92
12215;BME280;6170;42.206;24.142;2023-01-09T07:19:57;99262.78;;;3.17;83.61
12215;BME280;6170;42.206;24.142;2023-01-09T07:22:24;99261.94;;;3.17;82.77
12215;BME280;6170;42.206;24.142;2023-01-09T07:24:51;99255.94;;;3.15;83.29
12215;BME280;6170;42.206;24.142;2023-01-09T07:27:18;99260.38;;;3.14;83.53
12215;BME280;6170;42.206;24.142;2023-01-09T07:29:45;99275.16;;;3.27;83.70
12215;BME280;6170;42.206;24.142;2023-01-09T07:32:11;99248.19;;;2.94;84.10
12215;BME280;6170;42.206;24.142;2023-01-09T07:34:39;99233.88;;;2.87;84.27
12215;BME280;6170;42.206;24.142;2023-01-09T07:37:06;99225.50;;;2.92;84.66
12215;BME280;6170;42.206;24.142;2023-01-09T07:39:33;99249.34;;;3.29;84.44
12215;BME280;6170;42.206;24.142;2023-01-09T07:42:00;99236.19;;;3.09;84.40
12215;BME280;6170;42.206;24.142;2023-01-09T07:44:26;99243.53;;;3.15;84.41
12215;BME280;6170;42.206;24.142;2023-01-09T07:46:53;99238.22;;;3.25;84.31
12215;BME280;6170;42.206;24.142;2023-01-09T07:49:20;99235.31;;;3.19;84.56
12215;BME280;6170;42.206;24.142;2023-01-09T07:51:48;99226.25;;;3.21;84.28
12215;BME280;6170;42.206;24.142;2023-01-09T07:54:15;99276.13;;;3.63;84.56
12215;BME280;6170;42.206;24.142;2023-01-09T07:56:42;99229.09;;;3.37;84.45
12215;BME280;6170;42.206;24.142;2023-01-09T07:59:09;99249.19;;;3.67;84.25
12215;BME280;6170;42.206;24.142;2023-01-09T08:01:35;99222.78;;;3.48;84.03
12215;BME280;6170;42.206;24.142;2023-01-09T08:04:02;99227.25;;;3.47;84.31
12215;BME280;6170;42.206;24.142;2023-01-09T08:06:29;99231.56;;;3.76;83.24
12215;BME280;6170;42.206;24.142;2023-01-09T08:08:58;99238.03;;;3.63;84.10
12215;BME280;6170;42.206;24.142;2023-01-09T08:11:25;99230.44;;;3.78;83.95
12215;BME280;6170;42.206;24.142;2023-01-09T08:13:52;99230.41;;;4.05;82.81
12215;BME280;6170;42.206;24.142;2023-01-09T08:16:19;99233.13;;;4.14;82.89
12215;BME280;6170;42.206;24.142;2023-01-09T08:18:45;99240.16;;;4.05;83.27
12215;BME280;6170;42.206;24.142;2023-01-09T08:21:12;99235.25;;;4.10;83.59
12215;BME280;6170;42.206;24.142;2023-01-09T08:23:39;99240.66;;;4.36;82.95
12215;BME280;6170;42.206;24.142;2023-01-09T08:26:07;99247.63;;;4.19;83.60
12215;BME280;6170;42.206;24.142;2023-01-09T08:28:34;99241.47;;;3.74;84.76
12215;BME280;6170;42.206;24.142;2023-01-09T08:31:01;99249.59;;;3.90;85.04
12215;BME280;6170;42.206;24.142;2023-01-09T08:33:28;99247.44;;;4.21;84.08
12215;BME280;6170;42.206;24.142;2023-01-09T08:35:54;99243.38;;;4.26;83.24
12215;BME280;6170;42.206;24.142;2023-01-09T08:38:21;99249.03;;;4.14;83.48
12215;BME280;6170;42.206;24.142;2023-01-09T08:40:48;99241.16;;;4.22;81.98
12215;BME280;6170;42.206;24.142;2023-01-09T08:43:16;99242.31;;;4.19;81.95
12215;BME280;6170;42.206;24.142;2023-01-09T08:46:00;99247.13;;;3.88;83.60
12215;BME280;6170;42.206;24.142;2023-01-09T08:48:45;99295.63;;;4.16;83.59
12215;BME280;6170;42.206;24.142;2023-01-09T08:51:12;99265.16;;;3.85;83.57
12215;BME280;6170;42.206;24.142;2023-01-09T08:53:39;99260.16;;;3.99;83.78
12215;BME280;6170;42.206;24.142;2023-01-09T08:56:06;99251.00;;;4.12;83.78
12215;BME280;6170;42.206;24.142;2023-01-09T08:58:34;99302.38;;;4.11;84.03
12215;BME280;6170;42.206;24.142;2023-01-09T09:01:04;99253.94;;;3.91;83.77
12215;BME280;6170;42.206;24.142;2023-01-09T09:03:31;99247.25;;;3.87;85.20
12215;BME280;6170;42.206;24.142;2023-01-09T09:05:57;99240.28;;;3.86;85.33
12215;BME280;6170;42.206;24.142;2023-01-09T09:08:24;99236.47;;;3.98;85.31
12215;BME280;6170;42.206;24.142;2023-01-09T09:10:51;99232.59;;;4.10;85.04
12215;BME280;6170;42.206;24.142;2023-01-09T09:13:18;99230.94;;;4.09;84.53
12215;BME280;6170;42.206;24.142;2023-01-09T09:15:46;99242.84;;;4.23;83.41
12215;BME280;6170;42.206;24.142;2023-01-09T09:18:13;99238.81;;;4.36;83.14
12215;BME280;6170;42.206;24.142;2023-01-09T09:20:39;99232.91;;;4.60;82.88
12215;BME280;6170;42.206;24.142;2023-01-09T09:23:06;99236.91;;;4.64;82.38
12215;BME280;6170;42.206;24.142;2023-01-09T09:25:33;99232.22;;;4.58;82.67
12215;BME280;6170;42.206;24.142;2023-01-09T09:28:02;99227.06;;;4.57;81.88
12215;BME280;6170;42.206;24.142;2023-01-09T09:30:29;99217.56;;;4.72;81.44
12215;BME280;6170;42.206;24.142;2023-01-09T09:32:57;99220.88;;;4.74;81.80
12215;BME280;6170;42.206;24.142;2023-01-09T09:35:24;99223.41;;;5.01;81.36
12215;BME280;6170;42.206;24.142;2023-01-09T09:37:54;99210.53;;;4.88;82.02
12215;BME280;6170;42.206;24.142;2023-01-09T09:43:35;99204.28;;;5.23;81.62
12215;BME280;6170;42.206;24.142;2023-01-09T09:46:31;99212.56;;;5.54;81.15
12215;BME280;6170;42.206;24.142;2023-01-09T09:49:05;99195.81;;;5.28;81.90
12215;BME280;6170;42.206;24.142;2023-01-09T09:51:49;99194.28;;;5.51;81.61
12215;BME280;6170;42.206;24.142;2023-01-09T09:54:24;99182.72;;;5.26;82.56
12215;BME280;6170;42.206;24.142;2023-01-09T09:56:56;99185.13;;;5.46;83.04
12215;BME280;6170;42.206;24.142;2023-01-09T09:59:25;99178.13;;;5.44;83.45
12215;BME280;6170;42.206;24.142;2023-01-09T10:01:56;99188.59;;;5.46;83.92
12215;BME280;6170;42.206;24.142;2023-01-09T10:04:27;99180.69;;;5.62;83.47
12215;BME280;6170;42.206;24.142;2023-01-09T10:06:59;99174.31;;;5.89;83.55
12215;BME280;6170;42.206;24.142;2023-01-09T10:09:39;99165.63;;;5.79;83.50
12215;BME280;6170;42.206;24.142;2023-01-09T10:12:19;99164.13;;;5.84;83.48
12215;BME280;6170;42.206;24.142;2023-01-09T10:14:51;99151.50;;;5.78;83.98
12215;BME280;6170;42.206;24.142;2023-01-09T10:17:29;99148.25;;;5.93;84.45
12215;BME280;6170;42.206;24.142;2023-01-09T10:20:19;99133.41;;;5.82;84.15
12215;BME280;6170;42.206;24.142;2023-01-09T10:22:59;99119.81;;;6.25;83.54
12215;BME280;6170;42.206;24.142;2023-01-09T10:25:33;99132.16;;;6.10;83.96
12215;BME280;6170;42.206;24.142;2023-01-09T10:28:28;99133.63;;;6.45;81.57
12215;BME280;6170;42.206;24.142;2023-01-09T10:31:00;99125.00;;;6.19;82.96
12215;BME280;6170;42.206;24.142;2023-01-09T10:33:40;99128.16;;;6.14;83.22
12215;BME280;6170;42.206;24.142;2023-01-09T10:39:18;99114.16;;;6.45;83.05
12215;BME280;6170;42.206;24.142;2023-01-09T10:41:53;99099.84;;;6.54;82.22
12215;BME280;6170;42.206;24.142;2023-01-09T10:44:25;99086.72;;;6.20;82.04
12215;BME280;6170;42.206;24.142;2023-01-09T10:47:00;99094.78;;;6.83;81.92
12215;BME280;6170;42.206;24.142;2023-01-09T10:49:27;99092.38;;;7.12;81.37
12215;BME280;6170;42.206;24.142;2023-01-09T10:52:03;99094.28;;;7.27;80.01
12215;BME280;6170;42.206;24.142;2023-01-09T10:54:42;99087.84;;;7.75;78.24
12215;BME280;6170;42.206;24.142;2023-01-09T10:57:13;99077.84;;;7.77;77.95
12215;BME280;6170;42.206;24.142;2023-01-09T10:59:41;99061.91;;;7.68;78.51
12215;BME280;6170;42.206;24.142;2023-01-09T11:02:21;99057.50;;;7.76;77.44
12215;BME280;6170;42.206;24.142;2023-01-09T11:04:51;99060.34;;;7.51;78.72
12215;BME280;6170;42.206;24.142;2023-01-09T11:07:21;99034.53;;;7.44;79.79
12215;BME280;6170;42.206;24.142;2023-01-09T11:09:56;99030.75;;;7.84;79.36
12215;BME280;6170;42.206;24.142;2023-01-09T11:12:25;99040.03;;;8.10;78.31
12215;BME280;6170;42.206;24.142;2023-01-09T11:14:52;99042.63;;;8.04;79.03
12215;BME280;6170;42.206;24.142;2023-01-09T11:17:21;99039.84;;;7.52;78.94
12215;BME280;6170;42.206;24.142;2023-01-09T11:20:01;99036.44;;;7.35;80.71
12215;BME280;6170;42.206;24.142;2023-01-09T11:22:41;99009.56;;;7.45;79.91
12215;BME280;6170;42.206;24.142;2023-01-09T11:25:12;98995.19;;;7.23;80.84
12215;BME280;6170;42.206;24.142;2023-01-09T11:27:39;99014.28;;;7.04;81.20
12215;BME280;6170;42.206;24.142;2023-01-09T11:30:17;99015.03;;;6.82;81.30
12215;BME280;6170;42.206;24.142;2023-01-09T11:32:53;99025.69;;;6.82;81.59
12215;BME280;6170;42.206;24.142;2023-01-09T11:35:23;99015.00;;;6.59;82.65
12215;BME280;6170;42.206;24.142;2023-01-09T11:38:01;99039.09;;;6.57;82.69
12215;BME280;6170;42.206;24.142;2023-01-09T11:40:35;98996.44;;;6.26;83.71
12215;BME280;6170;42.206;24.142;2023-01-09T11:43:14;98996.22;;;6.44;84.09
12215;BME280;6170;42.206;24.142;2023-01-09T11:45:45;98995.53;;;6.50;83.42
12215;BME280;6170;42.206;24.142;2023-01-09T11:48:17;98985.91;;;6.33;83.33
12215;BME280;6170;42.206;24.142;2023-01-09T11:50:52;98983.69;;;6.06;84.89
12215;BME280;6170;42.206;24.142;2023-01-09T11:53:22;98997.63;;;6.24;84.44
12215;BME280;6170;42.206;24.142;2023-01-09T11:55:56;98982.16;;;6.03;85.75
12215;BME280;6170;42.206;24.142;2023-01-09T11:58:28;98989.66;;;5.92;85.58
12215;BME280;6170;42.206;24.142;2023-01-09T12:01:02;98974.88;;;5.89;86.71
12215;BME280;6170;42.206;24.142;2023-01-09T12:03:50;98978.34;;;5.98;86.66
12215;BME280;6170;42.206;24.142;2023-01-09T12:06:30;98974.19;;;6.19;85.15
12215;BME280;6170;42.206;24.142;2023-01-09T12:09:03;98975.00;;;6.12;85.35
12215;BME280;6170;42.206;24.142;2023-01-09T12:11:35;98998.75;;;6.21;85.16
12215;BME280;6170;42.206;24.142;2023-01-09T12:14:14;98969.22;;;5.92;85.61
12215;BME280;6170;42.206;24.142;2023-01-09T12:16:55;98947.94;;;5.68;86.56
12215;BME280;6170;42.206;24.142;2023-01-09T12:19:47;98955.94;;;5.92;86.58
12215;BME280;6170;42.206;24.142;2023-01-09T12:22:23;98967.34;;;6.17;85.86
12215;BME280;6170;42.206;24.142;2023-01-09T12:25:08;98972.81;;;6.15;84.85
12215;BME280;6170;42.206;24.142;2023-01-09T12:27:49;98967.38;;;5.76;86.80
12215;BME280;6170;42.206;24.142;2023-01-09T12:30:29;98956.75;;;5.60;87.09
12215;BME280;6170;42.206;24.142;2023-01-09T12:33:11;98955.06;;;5.67;87.43
12215;BME280;6170;42.206;24.142;2023-01-09T12:35:46;98954.25;;;5.59;88.08
12215;BME280;6170;42.206;24.142;2023-01-09T12:38:27;98941.28;;;5.80;87.53
12215;BME280;6170;42.206;24.142;2023-01-09T12:41:19;98935.78;;;5.81;86.61
12215;BME280;6170;42.206;24.142;2023-01-09T12:44:00;98933.63;;;5.77;86.00
12215;BME280;6170;42.206;24.142;2023-01-09T12:46:36;98920.19;;;5.78;86.19
12215;BME280;6170;42.206;24.142;2023-01-09T12:49:20;98940.47;;;5.88;85.76
12215;BME280;6170;42.206;24.142;2023-01-09T12:51:56;98937.81;;;5.88;86.38
12215;BME280;6170;42.206;24.142;2023-01-09T12:54:30;98937.16;;;5.69;86.61
12215;BME280;6170;42.206;24.142;2023-01-09T12:57:03;98947.94;;;5.84;86.59
12215;BME280;6170;42.206;24.142;2023-01-09T12:59:35;98943.16;;;5.88;86.19
12215;BME280;6170;42.206;24.142;2023-01-09T13:02:11;98929.84;;;5.88;85.97
12215;BME280;6170;42.206;24.142;2023-01-09T13:04:46;98930.50;;;5.90;86.05
12215;BME280;6170;42.206;24.142;2023-01-09T13:07:17;98940.78;;;5.76;86.61
12215;BME280;6170;42.206;24.142;2023-01-09T13:09:49;98943.97;;;5.88;86.52
12215;BME280;6170;42.206;24.142;2023-01-09T13:12:20;98934.28;;;6.03;86.27
12215;BME280;6170;42.206;24.142;2023-01-09T13:14:56;98943.75;;;6.14;85.40
12215;BME280;6170;42.206;24.142;2023-01-09T13:17:28;98944.94;;;5.95;85.76
12215;BME280;6170;42.206;24.142;2023-01-09T13:19:55;98942.78;;;5.99;86.13
12215;BME280;6170;42.206;24.142;2023-01-09T13:22:24;98952.22;;;5.85;86.23
12215;BME280;6170;42.206;24.142;2023-01-09T13:25:12;98948.78;;;5.93;86.37
12215;BME280;6170;42.206;24.142;2023-01-09T13:27:47;98959.56;;;5.67;86.79
12215;BME280;6170;42.206;24.142;2023-01-09T13:30:20;98947.09;;;5.75;87.38
12215;BME280;6170;42.206;24.142;2023-01-09T13:33:00;98956.75;;;6.01;86.68
12215;BME280;6170;42.206;24.142;2023-01-09T13:35:33;98948.28;;;5.97;85.90
12215;BME280;6170;42.206;24.142;2023-01-09T13:38:00;98944.28;;;5.93;86.65
12215;BME280;6170;42.206;24.142;2023-01-09T13:40:28;98928.84;;;5.89;85.71